Time;durP1;ratioP1;P1;durP2;ratioP2;P2;SDS_P1;SDS_P2;PMS_P1;PMS_P2;Temp;Humidity;BMP_temperature;BMP_pressure;BME280_temperature;BME280_humidity;BME280_pressure;Samples;Min_cycle;Max_cycle;Signal;HPM_P1;HPM_P2
2022/11/28 00:04:11;;;;;;;17.42;9.80;;;;;;;4.95;100.00;101081.28;10585913;27;20062;-71
2022/11/28 00:09:12;;;;;;;15.20;9.57;;;;;;;5.06;100.00;101097.00;10585801;27;20040;-71
2022/11/28 00:14:12;;;;;;;15.80;9.65;;;;;;;5.07;100.00;101076.88;10552172;27;20491;-71
2022/11/28 00:19:13;;;;;;;14.73;9.57;;;;;;;5.14;100.00;101072.22;10568302;27;20055;-71
2022/11/28 00:24:13;;;;;;;18.42;10.65;;;;;;;4.96;100.00;101045.63;10567281;27;20035;-71
2022/11/28 00:29:14;;;;;;;14.77;9.15;;;;;;;5.09;100.00;101049.38;10584366;27;20043;-71
2022/11/28 00:34:14;;;;;;;17.27;9.93;;;;;;;4.74;100.00;100998.66;10585063;27;20044;-71
2022/11/28 00:39:15;;;;;;;16.13;10.27;;;;;;;5.13;100.00;101050.63;10565675;27;20032;-71
2022/11/28 00:44:16;;;;;;;18.15;9.82;;;;;;;5.11;100.00;101033.63;10584452;27;20042;-72
2022/11/28 00:49:16;;;;;;;19.25;9.80;;;;;;;5.12;100.00;101029.81;10583313;27;20045;-71
2022/11/28 00:54:17;;;;;;;16.50;9.40;;;;;;;4.97;100.00;101009.06;10582628;27;20365;-71
2022/11/28 00:59:17;;;;;;;15.23;10.02;;;;;;;5.14;100.00;101031.28;10582289;27;20024;-69
2022/11/28 01:04:18;;;;;;;16.98;10.45;;;;;;;5.04;100.00;101009.91;10586551;27;21828;-71
2022/11/28 01:09:19;;;;;;;16.27;10.38;;;;;;;4.99;100.00;100985.16;10583903;27;20055;-71
2022/11/28 01:14:21;;;;;;;24.55;12.70;;;;;;;5.13;100.00;100996.03;10583398;27;20426;-72
2022/11/28 01:19:22;;;;;;;14.20;9.60;;;;;;;5.19;100.00;101006.91;10581982;27;20047;-71
2022/11/28 01:24:22;;;;;;;15.63;11.05;;;;;;;5.21;100.00;100993.06;10583487;27;20076;-71
2022/11/28 01:29:22;;;;;;;16.63;10.00;;;;;;;5.20;100.00;100981.28;10584244;27;20085;-70
2022/11/28 01:34:23;;;;;;;21.80;10.98;;;;;;;5.16;100.00;100965.56;10565878;28;20059;-71
2022/11/28 01:39:24;;;;;;;13.85;10.25;;;;;;;5.24;100.00;100981.69;10565729;27;20028;-71
2022/11/28 01:44:24;;;;;;;17.58;11.52;;;;;;;5.24;100.00;100977.06;10580997;27;20039;-71
2022/11/28 01:49:27;;;;;;;14.93;10.75;;;;;;;5.23;100.00;100969.13;10583418;27;20038;-72
2022/11/28 01:54:28;;;;;;;17.25;12.15;;;;;;;5.22;100.00;100953.78;10547423;27;20036;-72
2022/11/28 01:59:32;;;;;;;17.58;12.15;;;;;;;5.18;100.00;100933.44;10564345;27;20112;-72
2022/11/28 02:04:32;;;;;;;17.20;10.38;;;;;;;5.26;100.00;100927.72;10581700;28;20434;-71
2022/11/28 02:09:32;;;;;;;18.27;11.77;;;;;;;5.18;100.00;100919.78;10547168;28;20031;-72
2022/11/28 02:15:06;;;;;;;20.35;11.77;;;;;;;5.08;100.00;100895.69;10547334;27;20446;-71
2022/11/28 02:20:32;;;;;;;20.73;12.07;;;;;;;5.25;100.00;100920.59;10564185;27;20459;-71
2022/11/28 02:26:08;;;;;;;19.05;11.52;;;;;;;5.20;100.00;100906.75;10580759;27;20078;-72
2022/11/28 02:31:35;;;;;;;20.20;12.38;;;;;;;5.28;100.00;100922.06;10536034;28;20036;-71
2022/11/28 02:36:49;;;;;;;18.70;12.68;;;;;;;5.19;100.00;100916.03;10547034;28;20051;-72
2022/11/28 02:41:55;;;;;;;23.27;13.25;;;;;;;5.18;100.00;100904.25;10537594;28;20028;-71
2022/11/28 02:46:58;;;;;;;21.73;14.10;;;;;;;5.26;100.00;100920.38;10526598;28;20457;-72
2022/11/28 02:52:02;;;;;;;25.08;14.65;;;;;;;5.25;100.00;100915.16;10563921;28;20024;-72
2022/11/28 02:57:02;;;;;;;24.13;13.07;;;;;;;5.28;100.00;100906.50;10545484;28;20077;-72
2022/11/28 03:02:30;;;;;;;18.92;13.30;;;;;;;5.24;100.00;100903.38;10561972;28;20046;-72
2022/11/28 03:07:49;;;;;;;29.70;14.27;;;;;;;5.29;100.00;100913.63;10565061;28;20122;-72
2022/11/28 03:12:57;;;;;;;23.42;13.80;;;;;;;5.23;100.00;100887.25;10580031;27;20044;-72
2022/11/28 03:18:12;;;;;;;22.42;13.30;;;;;;;5.35;100.00;100896.38;10542760;28;20514;-71
2022/11/28 03:23:19;;;;;;;22.98;14.10;;;;;;;5.36;100.00;100887.16;10582441;27;20067;-71
2022/11/28 03:28:23;;;;;;;21.52;14.35;;;;;;;5.43;100.00;100878.91;10577749;27;20107;-72
2022/11/28 03:33:24;;;;;;;18.83;13.75;;;;;;;5.31;100.00;100851.47;10551638;28;20495;-72
2022/11/28 03:38:29;;;;;;;20.92;13.98;;;;;;;5.42;100.00;100858.97;10569251;28;20126;-72
2022/11/28 03:43:33;;;;;;;23.08;15.25;;;;;;;5.43;100.00;100852.44;10553477;27;20063;-72
2022/11/28 03:48:36;;;;;;;22.95;14.75;;;;;;;5.41;100.00;100846.34;10570043;27;20032;-72
2022/11/28 03:53:59;;;;;;;21.52;15.35;;;;;;;5.59;100.00;100852.97;10586552;27;20039;-72
2022/11/28 03:59:03;;;;;;;24.13;14.25;;;;;;;5.62;100.00;100863.44;10586227;27;20043;-70
2022/11/28 04:04:36;;;;;;;22.75;14.57;;;;;;;5.63;100.00;100863.22;10569207;27;20096;-72
2022/11/28 04:09:38;;;;;;;22.55;14.48;;;;;;;5.46;100.00;100843.81;10564042;27;20042;-72
2022/11/28 04:14:43;;;;;;;21.70;13.80;;;;;;;5.58;100.00;100856.72;10586140;27;20036;-72
2022/11/28 04:19:51;;;;;;;20.98;13.85;;;;;;;5.59;100.00;100859.25;10585206;27;20036;-71
2022/11/28 04:24:53;;;;;;;21.08;14.13;;;;;;;5.68;100.00;100857.06;10542958;28;20048;-71
2022/11/28 04:29:55;;;;;;;20.67;13.77;;;;;;;5.69;100.00;100863.41;10583994;27;20047;-72
2022/11/28 04:35:02;;;;;;;20.75;13.75;;;;;;;5.76;100.00;100854.06;10585009;27;20031;-72
2022/11/28 04:40:04;;;;;;;27.70;14.40;;;;;;;5.83;100.00;100860.31;10568470;27;20035;-72
2022/11/28 04:45:10;;;;;;;21.42;14.82;;;;;;;5.73;100.00;100838.13;10583555;27;20042;-72
2022/11/28 04:50:12;;;;;;;22.13;13.57;;;;;;;5.74;100.00;100831.59;10567434;27;20036;-72
2022/11/28 04:55:21;;;;;;;29.75;16.05;;;;;;;5.87;100.00;100849.81;10568263;27;20415;-71
2022/11/28 05:00:21;;;;;;;25.88;17.27;;;;;;;5.91;100.00;100855.63;10586296;27;20075;-72
2022/11/28 05:05:24;;;;;;;30.38;18.55;;;;;;;5.85;100.00;100847.28;10566389;27;20044;-72
2022/11/28 05:10:24;;;;;;;29.50;19.23;;;;;;;5.91;100.00;100855.63;10566256;27;20062;-72
2022/11/28 05:15:25;;;;;;;33.53;20.48;;;;;;;5.91;100.00;100861.91;10585091;27;20047;-71
2022/11/28 05:20:25;;;;;;;36.85;20.42;;;;;;;5.95;100.00;100862.34;10565657;27;20059;-72
2022/11/28 05:25:26;;;;;;;34.60;20.85;;;;;;;5.99;100.00;100858.09;10565081;27;20050;-72
2022/11/28 05:30:26;;;;;;;38.50;22.08;;;;;;;5.92;100.00;100846.38;10565905;27;20357;-71
2022/11/28 05:35:27;;;;;;;37.20;22.48;;;;;;;5.93;100.00;100868.00;10549116;27;20042;-71
2022/11/28 05:40:27;;;;;;;41.63;23.27;;;;;;;5.99;100.00;100874.50;10583730;27;20032;-72
2022/11/28 05:45:28;;;;;;;44.10;23.90;;;;;;;6.01;100.00;100878.69;10564320;27;20081;-72
2022/11/28 05:50:28;;;;;;;45.35;26.17;;;;;;;5.96;100.00;100864.03;10580033;27;20076;-71
2022/11/28 05:55:29;;;;;;;49.58;27.17;;;;;;;6.06;100.00;100881.59;10584550;27;20036;-71
2022/11/28 06:00:29;;;;;;;49.92;27.23;;;;;;;6.06;100.00;100870.66;10582034;27;20712;-71
2022/11/28 06:05:30;;;;;;;55.17;29.30;;;;;;;6.10;100.00;100879.25;10581068;27;20051;-72
2022/11/28 06:10:31;;;;;;;55.08;31.23;;;;;;;6.09;100.00;100874.84;10563533;27;20043;-71
2022/11/28 06:15:31;;;;;;;59.95;31.00;;;;;;;6.17;100.00;100888.22;10581489;27;20118;-72
2022/11/28 06:20:33;;;;;;;55.92;31.60;;;;;;;6.17;100.00;100885.47;10564111;27;20118;-72
2022/11/28 06:25:34;;;;;;;63.35;33.58;;;;;;;6.21;100.00;100896.81;10580346;27;20046;-71
2022/11/28 06:30:34;;;;;;;62.40;33.03;;;;;;;6.24;100.00;100893.63;10581290;28;20510;-72
2022/11/28 06:35:35;;;;;;;69.82;35.65;;;;;;;6.24;100.00;100899.94;10580902;28;20491;-71
2022/11/28 06:40:37;;;;;;;60.85;33.40;;;;;;;6.25;100.00;100896.13;10580922;27;20595;-72
2022/11/28 06:45:38;;;;;;;68.75;35.85;;;;;;;6.26;100.00;100896.97;10582358;27;20054;-71
2022/11/28 06:50:38;;;;;;;67.57;34.95;;;;;;;6.24;100.00;100899.94;10563111;28;20314;-71
2022/11/28 06:55:39;;;;;;;68.03;36.38;;;;;;;6.23;100.00;100895.50;10583780;28;20043;-71
2022/11/28 07:00:40;;;;;;;66.88;35.28;;;;;;;6.33;100.00;100916.88;10571043;27;20139;-71
2022/11/28 07:05:40;;;;;;;69.63;35.65;;;;;;;6.33;100.00;100913.31;10589609;27;20057;-72
2022/11/28 07:10:40;;;;;;;58.78;36.33;;;;;;;6.28;100.00;100915.88;10590039;27;20036;-71
2022/11/28 07:15:48;;;;;;;62.22;36.05;;;;;;;6.20;100.00;100895.97;10571692;28;20117;-72
2022/11/28 07:20:49;;;;;;;61.20;35.85;;;;;;;6.31;100.00;100915.44;10587946;28;20023;-71
2022/11/28 07:25:49;;;;;;;64.38;34.70;;;;;;;6.36;100.00;100923.78;10570551;27;20411;-71
2022/11/28 07:31:03;;;;;;;57.95;34.35;;;;;;;6.35;100.00;100919.41;10571543;27;20043;-72
2022/11/28 07:36:11;;;;;;;57.83;33.65;;;;;;;6.33;100.00;100924.25;10587701;27;20032;-72
2022/11/28 07:41:12;;;;;;;55.33;33.75;;;;;;;6.33;100.00;100929.72;10570673;27;20043;-72
2022/11/28 07:46:14;;;;;;;57.05;33.40;;;;;;;6.37;100.00;100930.94;10586907;27;20519;-72
2022/11/28 07:51:17;;;;;;;60.10;33.83;;;;;;;6.41;100.00;100929.44;10587556;27;20055;-71
2022/11/28 07:56:20;;;;;;;60.58;33.08;;;;;;;6.48;100.00;100932.94;10570858;27;20053;-71
2022/11/28 08:01:25;;;;;;;62.38;34.60;;;;;;;6.49;100.00;100939.22;10586708;27;20035;-71
2022/11/28 08:06:26;;;;;;;58.80;32.47;;;;;;;6.49;100.00;100937.34;10587672;27;20126;-70
2022/11/28 08:11:28;;;;;;;65.55;33.20;;;;;;;6.51;100.00;100940.69;10568838;27;20080;-71
2022/11/28 08:16:29;;;;;;;71.25;34.90;;;;;;;6.42;100.00;100922.91;10570329;27;20114;-71
2022/11/28 08:21:31;;;;;;;79.45;35.70;;;;;;;6.47;100.00;100939.47;10585197;27;20060;-70
2022/11/28 08:26:31;;;;;;;71.28;36.85;;;;;;;6.01;100.00;100862.28;10585018;27;20055;-71
2022/11/28 08:31:33;;;;;;;63.13;34.15;;;;;;;6.57;100.00;100953.44;10584177;27;20027;-71
2022/11/28 08:36:34;;;;;;;66.15;32.88;;;;;;;6.59;100.00;100961.44;10585260;27;20123;-71
2022/11/28 08:41:34;;;;;;;71.35;34.78;;;;;;;6.54;100.00;100947.63;10568063;27;20032;-71
2022/11/28 08:46:35;;;;;;;75.50;35.80;;;;;;;6.64;100.00;100956.97;10584684;27;20055;-71
2022/11/28 08:51:36;;;;;;;71.47;36.72;;;;;;;6.62;100.00;100950.88;10567879;28;20032;-71
2022/11/28 08:56:36;;;;;;;70.38;35.65;;;;;;;6.65;100.00;100955.88;10568167;28;20032;-71
2022/11/28 09:01:38;;;;;;;69.18;36.38;;;;;;;6.64;100.00;100954.22;10585606;27;20035;-71
2022/11/28 09:06:38;;;;;;;77.05;37.13;;;;;;;6.64;100.00;100962.44;10582499;27;20036;-71
2022/11/28 09:11:39;;;;;;;74.45;36.40;;;;;;;6.75;100.00;100973.69;10583871;27;20069;-71
2022/11/28 09:16:40;;;;;;;70.20;36.67;;;;;;;6.71;100.00;100958.78;10567637;27;20032;-72
2022/11/28 09:21:40;;;;;;;78.80;36.28;;;;;;;6.79;100.00;100969.44;10565427;28;20511;-71
2022/11/28 09:26:41;;;;;;;69.95;36.72;;;;;;;6.81;100.00;100981.00;10584227;27;20046;-72
2022/11/28 09:31:41;;;;;;;78.38;36.42;;;;;;;6.79;100.00;100970.28;10565922;28;20048;-71
2022/11/28 09:36:42;;;;;;;85.03;36.97;;;;;;;6.89;100.00;100982.59;10574836;27;20040;-71
2022/11/28 09:41:48;;;;;;;79.88;37.78;;;;;;;6.93;100.00;100994.78;10559267;28;20061;-71
2022/11/28 09:46:51;;;;;;;68.35;35.50;;;;;;;6.79;100.00;100966.72;10548953;27;20043;-71
2022/11/28 09:51:51;;;;;;;67.97;34.90;;;;;;;6.93;100.00;100992.88;10557305;28;20040;-70
2022/11/28 09:56:51;;;;;;;73.88;36.45;;;;;;;6.98;100.00;100994.91;10559918;28;20035;-71
2022/11/28 10:02:17;;;;;;;69.97;34.35;;;;;;;7.01;100.00;101000.78;10560090;28;20035;-71
2022/11/28 10:07:33;;;;;;;60.92;32.60;;;;;;;7.04;100.00;101005.78;10560837;28;20048;-71
2022/11/28 10:12:39;;;;;;;71.55;33.92;;;;;;;7.05;100.00;100999.25;10578517;27;20042;-71
2022/11/28 10:17:53;;;;;;;65.50;33.75;;;;;;;7.09;100.00;100996.91;10542358;28;20046;-71
2022/11/28 10:22:56;;;;;;;57.10;33.13;;;;;;;7.00;100.00;100996.34;10559982;28;20044;-71
2022/11/28 10:27:57;;;;;;;50.70;28.23;;;;;;;7.05;100.00;100995.69;10562091;28;20045;-71
2022/11/28 10:33:10;;;;;;;57.60;31.20;;;;;;;7.16;100.00;101005.03;10561932;28;20604;-71
2022/11/28 10:38:12;;;;;;;57.70;28.73;;;;;;;7.12;100.00;100995.63;10560162;28;20040;-70
2022/11/28 10:43:33;;;;;;;59.78;29.35;;;;;;;7.03;100.00;100993.19;10570036;28;20047;-71
2022/11/28 10:48:33;;;;;;;48.75;27.13;;;;;;;7.14;100.00;101004.44;10548070;27;20136;-70
2022/11/28 10:53:40;;;;;;;47.95;27.38;;;;;;;7.12;100.00;101001.09;10579788;28;20478;-71
2022/11/28 10:59:04;;;;;;;42.92;24.30;;;;;;;7.14;100.00;101007.19;10562183;28;20047;-71
2022/11/28 11:04:05;;;;;;;46.65;26.95;;;;;;;7.12;100.00;100990.97;10582463;28;20617;-70
2022/11/28 11:09:05;;;;;;;48.42;26.30;;;;;;;7.08;100.00;100987.84;10547099;28;20062;-70
2022/11/28 11:14:07;;;;;;;38.47;23.10;;;;;;;7.12;100.00;101004.66;10563765;28;20043;-71
2022/11/28 11:19:08;;;;;;;38.33;23.98;;;;;;;7.02;100.00;100983.28;10562607;28;20044;-71
2022/11/28 11:24:15;;;;;;;39.25;23.88;;;;;;;6.99;100.00;100985.66;10562350;28;20050;-70
2022/11/28 11:29:22;;;;;;;36.85;23.23;;;;;;;7.12;100.00;101007.38;10563799;28;20111;-71
2022/11/28 11:34:22;;;;;;;39.85;24.08;;;;;;;7.14;100.00;101007.19;10537681;28;20036;-71
2022/11/28 11:39:24;;;;;;;36.75;24.70;;;;;;;7.05;100.00;100988.31;10537836;28;20044;-70
2022/11/28 11:44:35;;;;;;;39.08;24.35;;;;;;;7.20;100.00;101003.53;10541407;28;20032;-70
2022/11/28 11:49:43;;;;;;;37.40;23.52;;;;;;;7.21;100.00;101008.78;10532354;28;20196;-70
2022/11/28 11:54:56;;;;;;;41.20;25.90;;;;;;;7.25;100.00;101004.47;10585581;27;20425;-71
2022/11/28 11:59:59;;;;;;;43.83;24.48;;;;;;;7.20;100.00;100993.41;10568174;27;20397;-71
2022/11/28 12:05:24;;;;;;;38.42;24.00;;;;;;;7.30;100.00;100995.59;10548389;27;20036;-71
2022/11/28 12:10:26;;;;;;;35.60;23.20;;;;;;;7.19;100.00;100997.22;10554446;27;20100;-71
2022/11/28 12:15:43;;;;;;;39.15;24.05;;;;;;;7.26;100.00;101014.38;10546831;27;20043;-71
2022/11/28 12:20:54;;;;;;;39.90;24.33;;;;;;;7.25;100.00;101022.81;10565117;27;20044;-70
2022/11/28 12:26:00;;;;;;;34.03;21.83;;;;;;;7.05;100.00;100993.78;10564246;28;20051;-70
2022/11/28 12:31:20;;;;;;;36.95;23.55;;;;;;;7.15;100.00;101006.09;10574278;27;20559;-70
2022/11/28 12:37:01;;;;;;;39.00;25.15;;;;;;;7.24;100.00;101032.94;10548778;27;20032;-70
2022/11/28 12:42:20;;;;;;;38.33;23.35;;;;;;;7.26;100.00;101028.09;10563818;28;20036;-70
2022/11/28 12:47:40;;;;;;;40.25;25.88;;;;;;;7.27;100.00;101028.91;10563933;27;20036;-70
2022/11/28 12:53:08;;;;;;;36.92;23.45;;;;;;;7.24;100.00;101029.38;10581716;27;20084;-71
2022/11/28 12:58:09;;;;;;;42.58;25.50;;;;;;;7.27;100.00;101028.91;10505887;28;20039;-70
2022/11/28 13:03:23;;;;;;;42.40;25.45;;;;;;;7.24;100.00;101015.69;10542913;28;20048;-70
2022/11/28 13:08:35;;;;;;;43.95;26.00;;;;;;;7.30;100.00;101028.47;10559425;28;20043;-70
2022/11/28 13:13:45;;;;;;;42.85;27.30;;;;;;;7.21;100.00;101013.41;10541655;28;20066;-71
2022/11/28 13:18:56;;;;;;;46.67;28.52;;;;;;;7.27;100.00;101028.91;10541598;28;20043;-71
2022/11/28 13:24:28;;;;;;;42.47;26.95;;;;;;;7.23;100.00;101024.97;10540966;28;20048;-71
2022/11/28 13:29:56;;;;;;;44.83;28.65;;;;;;;7.32;100.00;101041.91;10548317;27;20059;-71
2022/11/28 13:34:57;;;;;;;48.67;26.90;;;;;;;7.24;100.00;101029.38;10550882;27;20518;-71
2022/11/28 13:40:07;;;;;;;45.50;27.85;;;;;;;7.31;100.00;101052.03;10481432;28;20067;-70
2022/11/28 13:45:20;;;;;;;48.70;28.65;;;;;;;7.32;100.00;101059.19;10484793;28;20040;-70
2022/11/28 13:50:24;;;;;;;50.58;29.88;;;;;;;7.34;100.00;101051.59;10528333;28;20118;-70
2022/11/28 13:55:45;;;;;;;53.70;30.45;;;;;;;7.28;100.00;101047.84;10516052;28;20050;-70
2022/11/28 14:01:02;;;;;;;56.60;28.55;;;;;;;7.37;100.00;101056.59;10530295;28;20107;-70
2022/11/28 14:06:03;;;;;;;;;;;;;;;7.37;100.00;101062.06;10549020;28;20048;-70
2022/11/28 14:12:00;;;;;;;47.05;27.35;;;;;;;7.36;100.00;101059.56;10515395;27;19935;-70
2022/11/28 14:17:07;;;;;;;46.67;27.70;;;;;;;7.38;100.00;101069.25;10432712;27;20484;-71
2022/11/28 14:22:44;;;;;;;51.72;30.15;;;;;;;7.36;100.00;101067.78;10534687;27;20070;-70
2022/11/28 14:27:50;;;;;;;46.92;27.55;;;;;;;7.33;100.00;101066.34;10519699;27;20044;-70
2022/11/28 14:32:55;;;;;;;54.22;28.48;;;;;;;7.30;100.00;101066.81;10525283;28;20043;-70
2022/11/28 14:37:56;;;;;;;54.28;28.95;;;;;;;7.28;100.00;101072.50;10499487;28;20040;-70
2022/11/28 14:43:34;;;;;;;53.20;30.65;;;;;;;7.30;100.00;101091.47;10522261;27;20048;-70
2022/11/28 14:48:35;;;;;;;50.28;28.45;;;;;;;7.24;100.00;101095.94;10523469;27;20040;-70
2022/11/28 14:53:40;;;;;;;51.00;29.60;;;;;;;7.23;100.00;101102.47;10520713;28;20396;-70
2022/11/28 14:58:47;;;;;;;51.63;29.13;;;;;;;7.21;100.00;101109.22;10512506;27;20047;-70
2022/11/28 15:03:53;;;;;;;52.67;28.25;;;;;;;7.11;100.00;101089.75;10536876;28;20644;-70
2022/11/28 15:09:12;;;;;;;51.50;29.38;;;;;;;6.60;100.00;101054.22;10520551;27;20047;-70
2022/11/28 15:14:12;;;;;;;52.17;29.48;;;;;;;7.14;100.00;101117.53;10517011;28;20040;-70
2022/11/28 15:19:19;;;;;;;50.60;29.50;;;;;;;7.14;100.00;101127.66;10521471;27;20607;-70
2022/11/28 15:24:32;;;;;;;55.70;28.48;;;;;;;7.07;100.00;101111.28;10556790;27;20051;-71
2022/11/28 15:29:34;;;;;;;59.80;30.30;;;;;;;7.03;100.00;101105.41;10581357;27;20371;-71
2022/11/28 15:34:35;;;;;;;58.13;29.13;;;;;;;7.04;100.00;101107.06;10504023;28;20029;-70
2022/11/28 15:39:38;;;;;;;57.53;31.30;;;;;;;7.06;100.00;101123.28;10528144;28;20044;-70
2022/11/28 15:44:40;;;;;;;61.03;31.60;;;;;;;7.03;100.00;101112.81;10526362;28;20038;-70
2022/11/28 15:49:41;;;;;;;63.75;31.40;;;;;;;7.03;100.00;101121.00;10586188;27;20027;-69
2022/11/28 15:54:42;;;;;;;58.33;31.02;;;;;;;7.01;100.00;101126.69;10585617;27;20036;-69
2022/11/28 15:59:43;;;;;;;59.47;32.65;;;;;;;6.96;100.00;101120.22;10574773;27;20036;-69
2022/11/28 16:04:43;;;;;;;59.75;31.42;;;;;;;6.91;100.00;101112.69;10524760;28;20025;-69
2022/11/28 16:09:54;;;;;;;67.80;32.38;;;;;;;6.96;100.00;101123.78;10583262;27;20478;-69
2022/11/28 16:15:00;;;;;;;62.25;31.98;;;;;;;6.94;100.00;101128.66;10585740;27;20032;-69
2022/11/28 16:20:01;;;;;;;68.50;32.07;;;;;;;7.02;100.00;101147.53;10586199;27;20028;-69
2022/11/28 16:25:31;;;;;;;61.22;32.20;;;;;;;7.00;100.00;101143.34;10586070;27;20040;-69
2022/11/28 16:30:35;;;;;;;76.25;31.63;;;;;;;7.00;100.00;101137.88;10555914;28;20047;-69
2022/11/28 16:35:37;;;;;;;64.60;33.90;;;;;;;6.99;100.00;101145.25;10527588;28;20036;-69
2022/11/28 16:40:38;;;;;;;74.93;34.92;;;;;;;6.99;100.00;101153.47;10539154;28;20063;-69
2022/11/28 16:45:38;;;;;;;66.97;33.65;;;;;;;6.91;100.00;101145.53;10516827;28;20052;-69
2022/11/28 16:50:39;;;;;;;65.32;34.25;;;;;;;6.99;100.00;101158.94;10566588;28;20042;-69
2022/11/28 16:55:39;;;;;;;126.72;35.88;;;;;;;6.99;100.00;101158.94;10566014;27;20036;-70
2022/11/28 17:01:00;;;;;;;64.47;32.97;;;;;;;6.91;100.00;101161.94;10583752;27;20023;-69
2022/11/28 17:06:00;;;;;;;60.30;32.70;;;;;;;6.97;100.00;101185.69;10567179;27;20032;-69
2022/11/28 17:11:00;;;;;;;69.03;33.72;;;;;;;6.93;100.00;101180.91;10568507;27;20119;-70
2022/11/28 17:16:01;;;;;;;72.07;35.28;;;;;;;6.93;100.00;101181.72;10555402;27;20122;-70
2022/11/28 17:21:01;;;;;;;65.70;32.38;;;;;;;6.93;100.00;101181.72;10554010;28;20038;-69
2022/11/28 17:26:02;;;;;;;66.20;31.85;;;;;;;6.98;100.00;101195.56;10534347;27;20130;-69
2022/11/28 17:31:02;;;;;;;73.28;32.35;;;;;;;6.95;100.00;101201.50;10531476;27;20114;-69
2022/11/28 17:36:03;;;;;;;73.28;35.45;;;;;;;6.94;100.00;101190.78;10555144;28;20067;-70
2022/11/28 17:41:04;;;;;;;59.22;29.83;;;;;;;6.98;100.00;101198.31;10511565;27;20048;-69
2022/11/28 17:46:05;;;;;;;69.57;32.13;;;;;;;7.03;100.00;101206.72;10546159;27;20051;-71
2022/11/28 17:51:05;;;;;;;70.15;32.92;;;;;;;7.02;100.00;101207.75;10562080;27;20247;-70
2022/11/28 17:56:08;;;;;;;76.53;33.42;;;;;;;6.94;100.00;101193.50;10621315;27;20027;-69
2022/11/28 18:01:13;;;;;;;74.82;31.98;;;;;;;6.98;100.00;101208.44;10620647;27;20039;-69
2022/11/28 18:06:16;;;;;;;90.03;35.60;;;;;;;6.97;100.00;101202.13;10547825;28;20035;-70
2022/11/28 18:11:17;;;;;;;100.20;34.60;;;;;;;6.99;100.00;101210.94;10597668;27;20052;-70
2022/11/28 18:16:19;;;;;;;99.40;34.53;;;;;;;7.01;100.00;101211.56;10609496;27;20035;-70
2022/11/28 18:21:19;;;;;;;83.95;34.17;;;;;;;6.96;100.00;101207.81;10605952;27;20027;-70
2022/11/28 18:26:22;;;;;;;124.43;36.35;;;;;;;6.99;100.00;101208.22;10608143;27;20039;-70
2022/11/28 18:31:24;;;;;;;103.30;36.20;;;;;;;7.01;100.00;101219.78;10561353;27;20035;-71
2022/11/28 18:36:25;;;;;;;106.35;36.10;;;;;;;6.99;100.00;101212.84;10549193;27;20099;-70
2022/11/28 18:41:26;;;;;;;120.85;36.78;;;;;;;6.97;100.00;101215.81;10504522;27;20044;-70
2022/11/28 18:46:27;;;;;;;146.35;39.20;;;;;;;6.96;100.00;101219.59;10531546;27;20044;-70
2022/11/28 18:51:29;;;;;;;152.52;40.42;;;;;;;6.97;100.00;101237.72;10519623;27;20286;-70
2022/11/28 18:56:30;;;;;;;174.50;39.10;;;;;;;6.90;100.00;101214.16;10528797;27;20040;-70
2022/11/28 19:01:32;;;;;;;167.55;38.33;;;;;;;6.94;100.00;101226.34;10588447;27;20031;-70
2022/11/28 19:06:33;;;;;;;168.65;39.45;;;;;;;6.86;100.00;101220.09;10602945;27;20035;-70
2022/11/28 19:11:34;;;;;;;150.27;38.88;;;;;;;6.95;100.00;101236.25;10621086;27;20035;-70
2022/11/28 19:16:36;;;;;;;248.60;41.63;;;;;;;7.00;100.00;101252.84;10603058;27;20048;-70
2022/11/28 19:21:37;;;;;;;207.85;46.15;;;;;;;6.89;100.00;101229.75;10594085;27;20076;-70
2022/11/28 19:26:37;;;;;;;273.50;48.38;;;;;;;7.00;100.00;101256.41;10583514;27;20562;-71
2022/11/28 19:31:39;;;;;;;134.80;37.78;;;;;;;6.90;100.00;101241.53;10600708;27;20043;-70
2022/11/28 19:36:41;;;;;;;157.38;36.30;;;;;;;7.04;100.00;101260.38;10618970;27;20165;-70
2022/11/28 19:41:42;;;;;;;155.38;38.13;;;;;;;7.07;100.00;101253.66;10615904;27;20035;-71
2022/11/28 19:46:42;;;;;;;211.52;39.03;;;;;;;7.03;100.00;101263.38;10592846;27;20035;-71
2022/11/28 19:51:43;;;;;;;194.45;41.60;;;;;;;7.07;100.00;101270.06;10564522;28;20024;-70
2022/11/28 19:56:44;;;;;;;236.50;43.00;;;;;;;7.09;100.00;101273.44;10578010;28;20118;-70
2022/11/28 20:01:47;;;;;;;255.25;45.33;;;;;;;7.07;100.00;101268.16;10579792;28;20088;-70
2022/11/28 20:06:47;;;;;;;211.20;39.75;;;;;;;6.98;100.00;101266.75;10583941;27;20091;-70
2022/11/28 20:11:48;;;;;;;190.65;41.92;;;;;;;7.05;100.00;101281.25;10569183;27;20039;-70
2022/11/28 20:16:48;;;;;;;226.98;42.28;;;;;;;7.12;100.00;101294.88;10586892;27;20059;-69
2022/11/28 20:21:49;;;;;;;278.35;45.47;;;;;;;6.76;100.00;101251.72;10628159;27;20042;-70
2022/11/28 20:26:49;;;;;;;170.77;36.13;;;;;;;7.12;100.00;101294.06;10606272;27;20107;-71
2022/11/28 20:31:50;;;;;;;258.73;45.03;;;;;;;7.14;100.00;101302.88;10584719;27;20027;-70
2022/11/28 20:36:51;;;;;;;183.23;38.60;;;;;;;7.16;100.00;101303.50;10585824;27;20404;-70
2022/11/28 20:41:51;;;;;;;302.50;45.92;;;;;;;7.18;100.00;101317.81;10539413;27;20074;-69
2022/11/28 20:46:52;;;;;;;240.32;44.17;;;;;;;7.15;100.00;101310.03;10512422;27;20080;-70
2022/11/28 20:51:52;;;;;;;337.67;49.42;;;;;;;7.18;100.00;101321.38;10531463;27;20048;-70
2022/11/28 20:56:53;;;;;;;286.45;49.42;;;;;;;7.17;100.00;101325.19;10532592;27;20044;-70
2022/11/28 21:01:53;;;;;;;245.52;48.45;;;;;;;7.19;100.00;101327.69;10532267;27;20368;-72
2022/11/28 21:06:54;;;;;;;240.02;49.03;;;;;;;7.13;100.00;101309.41;10531118;27;20048;-68
2022/11/28 21:11:54;;;;;;;239.40;46.63;;;;;;;7.22;100.00;101324.53;10528273;27;20109;-70
2022/11/28 21:16:56;;;;;;;341.02;48.03;;;;;;;6.74;100.00;101259.31;10556256;27;20139;-70
2022/11/28 21:21:56;;;;;;;199.20;44.05;;;;;;;7.13;100.00;101314.88;10529596;27;20469;-70
2022/11/28 21:26:57;;;;;;;220.30;47.17;;;;;;;7.25;100.00;101333.13;10505138;27;20106;-70
2022/11/28 21:31:57;;;;;;;365.73;55.65;;;;;;;7.25;100.00;101332.28;10529359;27;20044;-70
2022/11/28 21:36:58;;;;;;;243.65;42.35;;;;;;;7.23;100.00;101323.44;10505995;27;20040;-70
2022/11/28 21:42:00;;;;;;;201.18;42.25;;;;;;;7.20;100.00;101323.91;10535378;27;20043;-69
2022/11/28 21:47:03;;;;;;;179.32;43.08;;;;;;;7.24;100.00;101339.66;10546500;27;20044;-70
2022/11/28 21:52:05;;;;;;;248.50;41.60;;;;;;;7.18;100.00;101326.03;10525206;27;20036;-70
2022/11/28 21:57:05;;;;;;;360.67;48.33;;;;;;;7.25;100.00;101343.25;10550794;28;20073;-70
2022/11/28 22:02:07;;;;;;;274.20;41.63;;;;;;;7.18;100.00;101332.34;10529060;27;20040;-70
2022/11/28 22:07:07;;;;;;;247.48;43.83;;;;;;;7.29;100.00;101352.69;10537045;27;20619;-70
2022/11/28 22:12:08;;;;;;;306.42;48.55;;;;;;;7.25;100.00;101337.75;10549251;27;20039;-70
2022/11/28 22:17:08;;;;;;;364.83;52.90;;;;;;;7.27;100.00;101341.13;10581132;28;20075;-69
2022/11/28 22:22:10;;;;;;;213.20;43.22;;;;;;;7.33;100.00;101345.72;10580507;28;20038;-71
2022/11/28 22:27:11;;;;;;;251.80;47.33;;;;;;;7.34;100.00;101352.88;10543659;27;20052;-69
2022/11/28 22:32:11;;;;;;;221.68;46.70;;;;;;;7.36;100.00;101353.50;10587663;27;20042;-70
2022/11/28 22:37:11;;;;;;;248.43;45.30;;;;;;;7.33;100.00;101351.19;10598968;27;20050;-70
2022/11/28 22:42:12;;;;;;;215.45;43.83;;;;;;;7.34;100.00;101355.63;10621729;27;20503;-70
2022/11/28 22:47:12;;;;;;;196.00;41.70;;;;;;;7.34;100.00;101352.88;10600064;27;20505;-70